sensor_id;sensor_type;location;lat;lon;timestamp;P1;durP1;ratioP1;P2;durP2;ratioP2
72771;SDS011;60894;42.544;1.516;2022-07-10T00:02:27;2.17;;;1.30;;
72771;SDS011;60894;42.544;1.516;2022-07-10T00:04:54;3.77;;;1.50;;
72771;SDS011;60894;42.544;1.516;2022-07-10T00:07:21;2.53;;;1.30;;
72771;SDS011;60894;42.544;1.516;2022-07-10T00:09:49;2.92;;;1.30;;
72771;SDS011;60894;42.544;1.516;2022-07-10T00:12:16;4.72;;;1.90;;
72771;SDS011;60894;42.544;1.516;2022-07-10T00:14:43;3.40;;;1.50;;
72771;SDS011;60894;42.544;1.516;2022-07-10T00:17:10;3.83;;;1.60;;
72771;SDS011;60894;42.544;1.516;2022-07-10T00:19:37;5.10;;;2.22;;
72771;SDS011;60894;42.544;1.516;2022-07-10T00:22:04;3.40;;;1.60;;
72771;SDS011;60894;42.544;1.516;2022-07-10T00:24:33;4.30;;;1.63;;
72771;SDS011;60894;42.544;1.516;2022-07-10T00:27:01;3.78;;;1.52;;
72771;SDS011;60894;42.544;1.516;2022-07-10T00:29:28;2.70;;;1.50;;
72771;SDS011;60894;42.544;1.516;2022-07-10T00:31:55;5.30;;;1.50;;
72771;SDS011;60894;42.544;1.516;2022-07-10T00:34:22;3.22;;;1.55;;
72771;SDS011;60894;42.544;1.516;2022-07-10T00:36:49;3.22;;;1.48;;
72771;SDS011;60894;42.544;1.516;2022-07-10T00:39:16;3.30;;;1.45;;
72771;SDS011;60894;42.544;1.516;2022-07-10T00:41:43;1.97;;;1.30;;
72771;SDS011;60894;42.544;1.516;2022-07-10T00:44:11;4.13;;;1.35;;
72771;SDS011;60894;42.544;1.516;2022-07-10T00:46:39;4.20;;;1.67;;
72771;SDS011;60894;42.544;1.516;2022-07-10T00:49:06;4.15;;;1.95;;
72771;SDS011;60894;42.544;1.516;2022-07-10T00:51:33;2.83;;;1.40;;
72771;SDS011;60894;42.544;1.516;2022-07-10T00:54:02;5.07;;;2.20;;
72771;SDS011;60894;42.544;1.516;2022-07-10T00:56:30;3.17;;;1.70;;
72771;SDS011;60894;42.544;1.516;2022-07-10T00:58:59;3.28;;;1.70;;
72771;SDS011;60894;42.544;1.516;2022-07-10T01:01:27;3.10;;;1.60;;
72771;SDS011;60894;42.544;1.516;2022-07-10T01:03:54;3.70;;;1.40;;
72771;SDS011;60894;42.544;1.516;2022-07-10T01:06:21;2.17;;;1.33;;
72771;SDS011;60894;42.544;1.516;2022-07-10T01:08:48;3.33;;;1.48;;
72771;SDS011;60894;42.544;1.516;2022-07-10T01:11:15;2.00;;;1.20;;
72771;SDS011;60894;42.544;1.516;2022-07-10T01:13:43;2.65;;;1.45;;
72771;SDS011;60894;42.544;1.516;2022-07-10T01:16:10;2.85;;;1.40;;
72771;SDS011;60894;42.544;1.516;2022-07-10T01:18:39;4.33;;;1.50;;
72771;SDS011;60894;42.544;1.516;2022-07-10T01:21:12;2.55;;;1.30;;
72771;SDS011;60894;42.544;1.516;2022-07-10T01:23:49;2.40;;;1.30;;
72771;SDS011;60894;42.544;1.516;2022-07-10T01:26:17;4.25;;;1.23;;
72771;SDS011;60894;42.544;1.516;2022-07-10T01:28:45;4.03;;;1.30;;
72771;SDS011;60894;42.544;1.516;2022-07-10T01:31:14;3.70;;;1.30;;
72771;SDS011;60894;42.544;1.516;2022-07-10T01:33:42;3.13;;;1.30;;
72771;SDS011;60894;42.544;1.516;2022-07-10T01:36:11;3.25;;;1.20;;
72771;SDS011;60894;42.544;1.516;2022-07-10T01:38:39;2.17;;;1.08;;
72771;SDS011;60894;42.544;1.516;2022-07-10T01:41:06;2.63;;;1.20;;
72771;SDS011;60894;42.544;1.516;2022-07-10T01:43:34;2.80;;;1.27;;
72771;SDS011;60894;42.544;1.516;2022-07-10T01:46:01;3.53;;;1.30;;
72771;SDS011;60894;42.544;1.516;2022-07-10T01:48:29;2.75;;;1.30;;
72771;SDS011;60894;42.544;1.516;2022-07-10T01:50:56;2.20;;;1.10;;
72771;SDS011;60894;42.544;1.516;2022-07-10T01:53:25;2.40;;;1.40;;
72771;SDS011;60894;42.544;1.516;2022-07-10T01:55:52;2.43;;;1.30;;
72771;SDS011;60894;42.544;1.516;2022-07-10T01:58:18;3.30;;;1.85;;
72771;SDS011;60894;42.544;1.516;2022-07-10T02:00:46;2.85;;;1.38;;
72771;SDS011;60894;42.544;1.516;2022-07-10T02:03:13;3.13;;;1.40;;
72771;SDS011;60894;42.544;1.516;2022-07-10T02:05:57;2.95;;;1.33;;
72771;SDS011;60894;42.544;1.516;2022-07-10T02:08:25;3.20;;;1.30;;
72771;SDS011;60894;42.544;1.516;2022-07-10T02:10:52;3.83;;;1.27;;
72771;SDS011;60894;42.544;1.516;2022-07-10T02:13:19;3.33;;;1.30;;
72771;SDS011;60894;42.544;1.516;2022-07-10T02:15:46;5.65;;;2.20;;
72771;SDS011;60894;42.544;1.516;2022-07-10T02:18:13;3.53;;;1.30;;
72771;SDS011;60894;42.544;1.516;2022-07-10T02:20:40;2.80;;;1.50;;
72771;SDS011;60894;42.544;1.516;2022-07-10T02:23:08;3.30;;;1.60;;
72771;SDS011;60894;42.544;1.516;2022-07-10T02:25:36;3.22;;;1.35;;
72771;SDS011;60894;42.544;1.516;2022-07-10T02:28:05;2.35;;;1.20;;
72771;SDS011;60894;42.544;1.516;2022-07-10T02:30:34;2.53;;;1.33;;
72771;SDS011;60894;42.544;1.516;2022-07-10T02:33:04;2.10;;;1.10;;
72771;SDS011;60894;42.544;1.516;2022-07-10T02:35:31;1.83;;;1.05;;
72771;SDS011;60894;42.544;1.516;2022-07-10T02:37:58;2.03;;;1.10;;
72771;SDS011;60894;42.544;1.516;2022-07-10T02:40:25;2.53;;;1.08;;
72771;SDS011;60894;42.544;1.516;2022-07-10T02:42:53;1.67;;;1.00;;
72771;SDS011;60894;42.544;1.516;2022-07-10T02:45:20;1.83;;;1.00;;
72771;SDS011;60894;42.544;1.516;2022-07-10T02:47:47;1.92;;;1.10;;
72771;SDS011;60894;42.544;1.516;2022-07-10T02:50:14;3.35;;;1.10;;
72771;SDS011;60894;42.544;1.516;2022-07-10T02:52:41;1.60;;;0.93;;
72771;SDS011;60894;42.544;1.516;2022-07-10T02:55:08;2.47;;;1.23;;
72771;SDS011;60894;42.544;1.516;2022-07-10T02:57:35;3.30;;;0.97;;
72771;SDS011;60894;42.544;1.516;2022-07-10T03:00:04;2.50;;;0.90;;
72771;SDS011;60894;42.544;1.516;2022-07-10T03:02:32;1.55;;;0.90;;
72771;SDS011;60894;42.544;1.516;2022-07-10T03:04:59;1.10;;;0.80;;
72771;SDS011;60894;42.544;1.516;2022-07-10T03:07:26;1.60;;;0.98;;
72771;SDS011;60894;42.544;1.516;2022-07-10T03:09:53;1.87;;;0.90;;
72771;SDS011;60894;42.544;1.516;2022-07-10T03:12:20;2.95;;;1.00;;
72771;SDS011;60894;42.544;1.516;2022-07-10T03:14:47;1.48;;;0.90;;
72771;SDS011;60894;42.544;1.516;2022-07-10T03:17:15;3.13;;;0.90;;
72771;SDS011;60894;42.544;1.516;2022-07-10T03:19:43;2.08;;;0.80;;
72771;SDS011;60894;42.544;1.516;2022-07-10T03:22:09;2.43;;;1.00;;
72771;SDS011;60894;42.544;1.516;2022-07-10T03:24:36;1.50;;;0.90;;
72771;SDS011;60894;42.544;1.516;2022-07-10T03:27:04;1.38;;;0.90;;
72771;SDS011;60894;42.544;1.516;2022-07-10T03:29:31;2.13;;;0.98;;
72771;SDS011;60894;42.544;1.516;2022-07-10T03:31:58;1.92;;;0.90;;
72771;SDS011;60894;42.544;1.516;2022-07-10T03:34:27;2.23;;;1.00;;
72771;SDS011;60894;42.544;1.516;2022-07-10T03:36:54;2.13;;;1.00;;
72771;SDS011;60894;42.544;1.516;2022-07-10T03:39:21;1.35;;;0.82;;
72771;SDS011;60894;42.544;1.516;2022-07-10T03:41:48;1.10;;;0.80;;
72771;SDS011;60894;42.544;1.516;2022-07-10T03:44:15;1.63;;;0.80;;
72771;SDS011;60894;42.544;1.516;2022-07-10T03:46:42;5.40;;;1.47;;
72771;SDS011;60894;42.544;1.516;2022-07-10T03:49:09;2.58;;;0.90;;
72771;SDS011;60894;42.544;1.516;2022-07-10T03:51:38;2.17;;;0.90;;
72771;SDS011;60894;42.544;1.516;2022-07-10T03:54:05;1.92;;;1.02;;
72771;SDS011;60894;42.544;1.516;2022-07-10T03:56:32;2.08;;;1.00;;
72771;SDS011;60894;42.544;1.516;2022-07-10T03:59:16;1.27;;;0.90;;
72771;SDS011;60894;42.544;1.516;2022-07-10T04:01:43;2.85;;;0.95;;
72771;SDS011;60894;42.544;1.516;2022-07-10T04:04:10;1.48;;;0.80;;
72771;SDS011;60894;42.544;1.516;2022-07-10T04:06:38;1.63;;;0.90;;
72771;SDS011;60894;42.544;1.516;2022-07-10T04:09:05;2.50;;;0.90;;
72771;SDS011;60894;42.544;1.516;2022-07-10T04:11:32;1.97;;;0.90;;
72771;SDS011;60894;42.544;1.516;2022-07-10T04:13:59;1.48;;;0.93;;
72771;SDS011;60894;42.544;1.516;2022-07-10T04:16:26;1.65;;;0.90;;
72771;SDS011;60894;42.544;1.516;2022-07-10T04:18:53;2.63;;;0.90;;
72771;SDS011;60894;42.544;1.516;2022-07-10T04:21:20;1.30;;;1.00;;
72771;SDS011;60894;42.544;1.516;2022-07-10T04:23:48;1.90;;;0.83;;
72771;SDS011;60894;42.544;1.516;2022-07-10T04:26:15;2.10;;;0.90;;
72771;SDS011;60894;42.544;1.516;2022-07-10T04:28:42;1.60;;;0.82;;
72771;SDS011;60894;42.544;1.516;2022-07-10T04:31:09;2.22;;;1.20;;
72771;SDS011;60894;42.544;1.516;2022-07-10T04:33:36;3.03;;;1.00;;
72771;SDS011;60894;42.544;1.516;2022-07-10T04:36:03;4.87;;;1.27;;
72771;SDS011;60894;42.544;1.516;2022-07-10T04:38:30;2.83;;;1.15;;
72771;SDS011;60894;42.544;1.516;2022-07-10T04:41:01;2.10;;;0.80;;
72771;SDS011;60894;42.544;1.516;2022-07-10T04:43:29;2.53;;;1.00;;
72771;SDS011;60894;42.544;1.516;2022-07-10T04:45:59;2.13;;;1.02;;
72771;SDS011;60894;42.544;1.516;2022-07-10T04:48:26;1.77;;;0.90;;
72771;SDS011;60894;42.544;1.516;2022-07-10T04:50:53;4.53;;;1.00;;
72771;SDS011;60894;42.544;1.516;2022-07-10T04:53:20;4.30;;;1.15;;
72771;SDS011;60894;42.544;1.516;2022-07-10T04:55:47;2.95;;;0.90;;
72771;SDS011;60894;42.544;1.516;2022-07-10T04:58:15;1.05;;;0.70;;
72771;SDS011;60894;42.544;1.516;2022-07-10T05:00:42;3.07;;;1.33;;
72771;SDS011;60894;42.544;1.516;2022-07-10T05:03:09;2.55;;;1.20;;
72771;SDS011;60894;42.544;1.516;2022-07-10T05:05:36;3.50;;;1.10;;
72771;SDS011;60894;42.544;1.516;2022-07-10T05:08:03;5.07;;;1.13;;
72771;SDS011;60894;42.544;1.516;2022-07-10T05:10:31;1.80;;;0.75;;
72771;SDS011;60894;42.544;1.516;2022-07-10T05:12:58;3.53;;;0.90;;
72771;SDS011;60894;42.544;1.516;2022-07-10T05:15:26;3.28;;;0.90;;
72771;SDS011;60894;42.544;1.516;2022-07-10T05:17:53;2.22;;;1.23;;
72771;SDS011;60894;42.544;1.516;2022-07-10T05:20:20;1.10;;;0.70;;
72771;SDS011;60894;42.544;1.516;2022-07-10T05:22:47;1.98;;;0.80;;
72771;SDS011;60894;42.544;1.516;2022-07-10T05:25:14;1.83;;;0.73;;
72771;SDS011;60894;42.544;1.516;2022-07-10T05:27:41;2.33;;;0.80;;
72771;SDS011;60894;42.544;1.516;2022-07-10T05:30:08;0.98;;;0.80;;
72771;SDS011;60894;42.544;1.516;2022-07-10T05:32:43;1.08;;;0.70;;
72771;SDS011;60894;42.544;1.516;2022-07-10T05:35:10;1.00;;;0.60;;
72771;SDS011;60894;42.544;1.516;2022-07-10T05:37:37;0.90;;;0.60;;
72771;SDS011;60894;42.544;1.516;2022-07-10T05:40:05;1.35;;;0.80;;
72771;SDS011;60894;42.544;1.516;2022-07-10T05:42:33;1.30;;;0.70;;
72771;SDS011;60894;42.544;1.516;2022-07-10T05:45:00;2.50;;;0.90;;
72771;SDS011;60894;42.544;1.516;2022-07-10T05:47:27;2.75;;;1.00;;
72771;SDS011;60894;42.544;1.516;2022-07-10T05:49:55;1.73;;;0.73;;
72771;SDS011;60894;42.544;1.516;2022-07-10T05:52:22;1.55;;;0.70;;
72771;SDS011;60894;42.544;1.516;2022-07-10T05:54:49;4.70;;;1.00;;
72771;SDS011;60894;42.544;1.516;2022-07-10T05:57:17;12.75;;;1.63;;
72771;SDS011;60894;42.544;1.516;2022-07-10T05:59:43;3.78;;;0.90;;
72771;SDS011;60894;42.544;1.516;2022-07-10T06:02:10;5.17;;;0.80;;
72771;SDS011;60894;42.544;1.516;2022-07-10T06:04:37;3.90;;;0.95;;
72771;SDS011;60894;42.544;1.516;2022-07-10T06:07:06;5.72;;;1.17;;
72771;SDS011;60894;42.544;1.516;2022-07-10T06:09:33;4.75;;;1.10;;
72771;SDS011;60894;42.544;1.516;2022-07-10T06:12:00;4.90;;;1.45;;
72771;SDS011;60894;42.544;1.516;2022-07-10T06:14:27;4.80;;;0.97;;
72771;SDS011;60894;42.544;1.516;2022-07-10T06:16:54;3.45;;;0.90;;
72771;SDS011;60894;42.544;1.516;2022-07-10T06:19:21;2.42;;;0.70;;
72771;SDS011;60894;42.544;1.516;2022-07-10T06:21:48;4.68;;;1.00;;
72771;SDS011;60894;42.544;1.516;2022-07-10T06:24:36;5.28;;;1.00;;
72771;SDS011;60894;42.544;1.516;2022-07-10T06:27:05;2.63;;;1.00;;
72771;SDS011;60894;42.544;1.516;2022-07-10T06:29:32;3.45;;;0.85;;
72771;SDS011;60894;42.544;1.516;2022-07-10T06:31:58;2.22;;;0.90;;
72771;SDS011;60894;42.544;1.516;2022-07-10T06:34:26;2.05;;;0.73;;
72771;SDS011;60894;42.544;1.516;2022-07-10T06:36:53;2.35;;;0.73;;
72771;SDS011;60894;42.544;1.516;2022-07-10T06:39:21;2.97;;;0.90;;
72771;SDS011;60894;42.544;1.516;2022-07-10T06:41:57;2.95;;;0.73;;
72771;SDS011;60894;42.544;1.516;2022-07-10T06:44:28;2.30;;;0.80;;
72771;SDS011;60894;42.544;1.516;2022-07-10T06:46:55;1.45;;;0.80;;
72771;SDS011;60894;42.544;1.516;2022-07-10T06:49:40;2.53;;;0.80;;
72771;SDS011;60894;42.544;1.516;2022-07-10T06:52:10;1.73;;;0.70;;
72771;SDS011;60894;42.544;1.516;2022-07-10T06:54:39;3.72;;;1.35;;
72771;SDS011;60894;42.544;1.516;2022-07-10T06:57:08;2.17;;;0.98;;
72771;SDS011;60894;42.544;1.516;2022-07-10T07:02:16;2.45;;;0.90;;
72771;SDS011;60894;42.544;1.516;2022-07-10T07:04:47;5.57;;;1.10;;
72771;SDS011;60894;42.544;1.516;2022-07-10T07:07:14;1.35;;;0.70;;
72771;SDS011;60894;42.544;1.516;2022-07-10T07:09:41;1.50;;;0.80;;
72771;SDS011;60894;42.544;1.516;2022-07-10T07:12:10;1.55;;;0.80;;
72771;SDS011;60894;42.544;1.516;2022-07-10T07:14:37;3.80;;;0.90;;
72771;SDS011;60894;42.544;1.516;2022-07-10T07:17:04;2.40;;;1.00;;
72771;SDS011;60894;42.544;1.516;2022-07-10T07:19:34;2.75;;;0.80;;
72771;SDS011;60894;42.544;1.516;2022-07-10T07:22:15;1.52;;;0.75;;
72771;SDS011;60894;42.544;1.516;2022-07-10T07:24:59;1.95;;;0.80;;
72771;SDS011;60894;42.544;1.516;2022-07-10T07:27:27;2.58;;;1.10;;
72771;SDS011;60894;42.544;1.516;2022-07-10T07:29:54;1.67;;;0.80;;
72771;SDS011;60894;42.544;1.516;2022-07-10T07:32:21;1.63;;;0.80;;
72771;SDS011;60894;42.544;1.516;2022-07-10T07:34:50;2.22;;;1.00;;
72771;SDS011;60894;42.544;1.516;2022-07-10T07:37:16;2.45;;;0.90;;
72771;SDS011;60894;42.544;1.516;2022-07-10T07:39:43;1.77;;;0.88;;
72771;SDS011;60894;42.544;1.516;2022-07-10T07:42:10;3.30;;;1.00;;
72771;SDS011;60894;42.544;1.516;2022-07-10T07:44:38;1.38;;;0.95;;
72771;SDS011;60894;42.544;1.516;2022-07-10T07:47:05;2.15;;;1.00;;
72771;SDS011;60894;42.544;1.516;2022-07-10T07:49:32;1.52;;;0.70;;
72771;SDS011;60894;42.544;1.516;2022-07-10T07:51:59;0.80;;;0.70;;
72771;SDS011;60894;42.544;1.516;2022-07-10T07:54:26;1.73;;;0.83;;
72771;SDS011;60894;42.544;1.516;2022-07-10T07:56:53;1.50;;;0.77;;
72771;SDS011;60894;42.544;1.516;2022-07-10T07:59:23;2.35;;;0.90;;
72771;SDS011;60894;42.544;1.516;2022-07-10T08:01:51;2.10;;;0.82;;
72771;SDS011;60894;42.544;1.516;2022-07-10T08:04:18;1.20;;;0.70;;
72771;SDS011;60894;42.544;1.516;2022-07-10T08:06:45;3.03;;;0.90;;
72771;SDS011;60894;42.544;1.516;2022-07-10T08:09:12;1.35;;;0.80;;
72771;SDS011;60894;42.544;1.516;2022-07-10T08:11:39;2.40;;;1.05;;
72771;SDS011;60894;42.544;1.516;2022-07-10T08:14:06;3.15;;;1.10;;
72771;SDS011;60894;42.544;1.516;2022-07-10T08:16:33;2.22;;;0.90;;
72771;SDS011;60894;42.544;1.516;2022-07-10T08:19:01;1.10;;;0.73;;
72771;SDS011;60894;42.544;1.516;2022-07-10T08:21:29;0.70;;;0.70;;
72771;SDS011;60894;42.544;1.516;2022-07-10T08:23:57;1.00;;;0.73;;
72771;SDS011;60894;42.544;1.516;2022-07-10T08:26:24;3.65;;;0.70;;
72771;SDS011;60894;42.544;1.516;2022-07-10T08:28:51;1.42;;;0.70;;
72771;SDS011;60894;42.544;1.516;2022-07-10T08:31:18;4.10;;;1.10;;
72771;SDS011;60894;42.544;1.516;2022-07-10T08:33:45;1.73;;;0.68;;
72771;SDS011;60894;42.544;1.516;2022-07-10T08:36:14;2.40;;;1.00;;
72771;SDS011;60894;42.544;1.516;2022-07-10T08:38:41;1.35;;;0.80;;
72771;SDS011;60894;42.544;1.516;2022-07-10T08:41:11;2.47;;;1.02;;
72771;SDS011;60894;42.544;1.516;2022-07-10T08:43:40;2.37;;;1.00;;
72771;SDS011;60894;42.544;1.516;2022-07-10T08:46:07;2.85;;;1.30;;
72771;SDS011;60894;42.544;1.516;2022-07-10T08:48:36;2.22;;;1.10;;
72771;SDS011;60894;42.544;1.516;2022-07-10T08:51:06;1.80;;;1.20;;
72771;SDS011;60894;42.544;1.516;2022-07-10T08:53:38;2.50;;;1.40;;
72771;SDS011;60894;42.544;1.516;2022-07-10T08:56:06;3.13;;;1.40;;
72771;SDS011;60894;42.544;1.516;2022-07-10T08:58:33;5.07;;;1.42;;
72771;SDS011;60894;42.544;1.516;2022-07-10T09:01:01;3.10;;;1.40;;
72771;SDS011;60894;42.544;1.516;2022-07-10T09:03:31;4.10;;;1.63;;
72771;SDS011;60894;42.544;1.516;2022-07-10T09:05:58;5.50;;;2.10;;
72771;SDS011;60894;42.544;1.516;2022-07-10T09:08:26;4.20;;;1.70;;
72771;SDS011;60894;42.544;1.516;2022-07-10T09:13:49;2.38;;;1.55;;
72771;SDS011;60894;42.544;1.516;2022-07-10T09:16:20;3.35;;;1.63;;
72771;SDS011;60894;42.544;1.516;2022-07-10T09:18:48;4.13;;;1.70;;
72771;SDS011;60894;42.544;1.516;2022-07-10T09:21:15;3.90;;;1.70;;
72771;SDS011;60894;42.544;1.516;2022-07-10T09:23:42;3.45;;;1.60;;
72771;SDS011;60894;42.544;1.516;2022-07-10T09:26:09;3.50;;;1.90;;
72771;SDS011;60894;42.544;1.516;2022-07-10T09:28:38;2.40;;;1.35;;
72771;SDS011;60894;42.544;1.516;2022-07-10T09:31:05;4.60;;;1.67;;
72771;SDS011;60894;42.544;1.516;2022-07-10T09:33:32;2.93;;;1.60;;
72771;SDS011;60894;42.544;1.516;2022-07-10T09:36:01;2.55;;;1.60;;
72771;SDS011;60894;42.544;1.516;2022-07-10T09:38:50;3.63;;;1.50;;
72771;SDS011;60894;42.544;1.516;2022-07-10T09:41:20;1.65;;;1.20;;
72771;SDS011;60894;42.544;1.516;2022-07-10T09:43:50;2.75;;;1.45;;
72771;SDS011;60894;42.544;1.516;2022-07-10T09:46:18;2.00;;;1.13;;
72771;SDS011;60894;42.544;1.516;2022-07-10T09:48:46;1.40;;;1.10;;
72771;SDS011;60894;42.544;1.516;2022-07-10T09:51:13;3.28;;;1.10;;
72771;SDS011;60894;42.544;1.516;2022-07-10T09:53:41;1.85;;;1.20;;
72771;SDS011;60894;42.544;1.516;2022-07-10T09:56:09;1.38;;;1.00;;
72771;SDS011;60894;42.544;1.516;2022-07-10T09:58:38;2.37;;;1.23;;
72771;SDS011;60894;42.544;1.516;2022-07-10T10:01:08;2.03;;;1.20;;
72771;SDS011;60894;42.544;1.516;2022-07-10T10:03:35;1.92;;;1.27;;
72771;SDS011;60894;42.544;1.516;2022-07-10T10:06:05;1.38;;;1.10;;
72771;SDS011;60894;42.544;1.516;2022-07-10T10:08:43;1.85;;;1.10;;
72771;SDS011;60894;42.544;1.516;2022-07-10T10:11:14;1.40;;;1.20;;
72771;SDS011;60894;42.544;1.516;2022-07-10T10:13:47;1.73;;;1.00;;
72771;SDS011;60894;42.544;1.516;2022-07-10T10:16:17;1.10;;;1.00;;
72771;SDS011;60894;42.544;1.516;2022-07-10T10:18:46;1.77;;;0.90;;
72771;SDS011;60894;42.544;1.516;2022-07-10T10:21:30;1.50;;;1.00;;
72771;SDS011;60894;42.544;1.516;2022-07-10T10:23:59;1.67;;;0.97;;
72771;SDS011;60894;42.544;1.516;2022-07-10T10:26:27;1.42;;;0.90;;
72771;SDS011;60894;42.544;1.516;2022-07-10T10:28:55;5.82;;;2.00;;
72771;SDS011;60894;42.544;1.516;2022-07-10T10:31:25;1.70;;;1.10;;
72771;SDS011;60894;42.544;1.516;2022-07-10T10:33:54;3.33;;;1.00;;
72771;SDS011;60894;42.544;1.516;2022-07-10T10:39:12;1.98;;;1.23;;
72771;SDS011;60894;42.544;1.516;2022-07-10T10:41:41;1.75;;;1.20;;
72771;SDS011;60894;42.544;1.516;2022-07-10T10:44:27;1.98;;;1.23;;
72771;SDS011;60894;42.544;1.516;2022-07-10T10:47:00;1.40;;;1.05;;
72771;SDS011;60894;42.544;1.516;2022-07-10T10:49:47;2.67;;;1.20;;
72771;SDS011;60894;42.544;1.516;2022-07-10T10:52:24;2.03;;;1.27;;
72771;SDS011;60894;42.544;1.516;2022-07-10T10:55:07;2.28;;;1.55;;
72771;SDS011;60894;42.544;1.516;2022-07-10T10:57:41;2.83;;;1.40;;
72771;SDS011;60894;42.544;1.516;2022-07-10T11:00:34;3.50;;;1.35;;
72771;SDS011;60894;42.544;1.516;2022-07-10T11:03:16;1.73;;;1.27;;
72771;SDS011;60894;42.544;1.516;2022-07-10T11:05:45;2.10;;;1.30;;
72771;SDS011;60894;42.544;1.516;2022-07-10T11:14:06;2.65;;;1.40;;
72771;SDS011;60894;42.544;1.516;2022-07-10T11:16:35;2.40;;;1.40;;
72771;SDS011;60894;42.544;1.516;2022-07-10T11:19:21;1.60;;;1.48;;
72771;SDS011;60894;42.544;1.516;2022-07-10T11:21:58;2.10;;;1.40;;
72771;SDS011;60894;42.544;1.516;2022-07-10T11:24:44;2.63;;;1.50;;
72771;SDS011;60894;42.544;1.516;2022-07-10T11:27:28;3.17;;;1.80;;
72771;SDS011;60894;42.544;1.516;2022-07-10T11:30:02;2.17;;;1.50;;
72771;SDS011;60894;42.544;1.516;2022-07-10T11:32:29;2.90;;;1.77;;
72771;SDS011;60894;42.544;1.516;2022-07-10T11:34:58;3.13;;;1.50;;
72771;SDS011;60894;42.544;1.516;2022-07-10T11:37:26;4.18;;;2.10;;
72771;SDS011;60894;42.544;1.516;2022-07-10T11:40:08;2.25;;;1.48;;
72771;SDS011;60894;42.544;1.516;2022-07-10T11:42:52;3.53;;;1.60;;
72771;SDS011;60894;42.544;1.516;2022-07-10T11:45:23;2.20;;;1.50;;
72771;SDS011;60894;42.544;1.516;2022-07-10T11:47:55;3.00;;;1.60;;
72771;SDS011;60894;42.544;1.516;2022-07-10T11:50:24;2.60;;;1.55;;
72771;SDS011;60894;42.544;1.516;2022-07-10T11:52:53;2.42;;;1.27;;
72771;SDS011;60894;42.544;1.516;2022-07-10T11:55:21;2.00;;;1.50;;
72771;SDS011;60894;42.544;1.516;2022-07-10T11:57:50;2.85;;;1.40;;
72771;SDS011;60894;42.544;1.516;2022-07-10T12:00:21;2.45;;;1.50;;
72771;SDS011;60894;42.544;1.516;2022-07-10T12:02:49;3.17;;;1.40;;
72771;SDS011;60894;42.544;1.516;2022-07-10T12:05:37;4.38;;;2.20;;
72771;SDS011;60894;42.544;1.516;2022-07-10T12:08:05;2.60;;;1.60;;
72771;SDS011;60894;42.544;1.516;2022-07-10T12:10:33;3.13;;;1.80;;
72771;SDS011;60894;42.544;1.516;2022-07-10T12:13:04;2.53;;;1.40;;
72771;SDS011;60894;42.544;1.516;2022-07-10T12:15:36;1.92;;;1.40;;
72771;SDS011;60894;42.544;1.516;2022-07-10T12:18:05;3.28;;;1.60;;
72771;SDS011;60894;42.544;1.516;2022-07-10T12:20:33;2.47;;;1.60;;
72771;SDS011;60894;42.544;1.516;2022-07-10T12:23:02;3.77;;;1.70;;
72771;SDS011;60894;42.544;1.516;2022-07-10T12:25:30;3.60;;;1.60;;
72771;SDS011;60894;42.544;1.516;2022-07-10T12:27:57;2.83;;;1.50;;
72771;SDS011;60894;42.544;1.516;2022-07-10T12:30:41;3.10;;;1.50;;
72771;SDS011;60894;42.544;1.516;2022-07-10T12:33:09;1.60;;;1.50;;
72771;SDS011;60894;42.544;1.516;2022-07-10T12:35:48;1.90;;;1.40;;
72771;SDS011;60894;42.544;1.516;2022-07-10T12:38:21;3.00;;;1.50;;
72771;SDS011;60894;42.544;1.516;2022-07-10T12:40:48;2.33;;;1.60;;
72771;SDS011;60894;42.544;1.516;2022-07-10T12:43:26;2.50;;;1.50;;
72771;SDS011;60894;42.544;1.516;2022-07-10T12:46:12;2.00;;;1.70;;
72771;SDS011;60894;42.544;1.516;2022-07-10T12:48:41;2.13;;;1.30;;
72771;SDS011;60894;42.544;1.516;2022-07-10T12:51:23;3.73;;;1.60;;
72771;SDS011;60894;42.544;1.516;2022-07-10T12:53:53;2.20;;;1.50;;
72771;SDS011;60894;42.544;1.516;2022-07-10T12:56:33;3.42;;;2.47;;
72771;SDS011;60894;42.544;1.516;2022-07-10T12:59:05;2.78;;;1.52;;
72771;SDS011;60894;42.544;1.516;2022-07-10T13:01:41;2.92;;;1.42;;
72771;SDS011;60894;42.544;1.516;2022-07-10T13:04:08;3.67;;;2.23;;
72771;SDS011;60894;42.544;1.516;2022-07-10T13:06:35;1.50;;;1.30;;
72771;SDS011;60894;42.544;1.516;2022-07-10T13:09:18;1.98;;;1.45;;
72771;SDS011;60894;42.544;1.516;2022-07-10T13:11:48;1.58;;;1.20;;
72771;SDS011;60894;42.544;1.516;2022-07-10T13:14:16;1.38;;;0.90;;
72771;SDS011;60894;42.544;1.516;2022-07-10T13:16:43;1.52;;;1.10;;
72771;SDS011;60894;42.544;1.516;2022-07-10T13:19:10;1.17;;;1.00;;
72771;SDS011;60894;42.544;1.516;2022-07-10T13:21:37;1.97;;;1.10;;
72771;SDS011;60894;42.544;1.516;2022-07-10T13:24:04;3.00;;;1.20;;
72771;SDS011;60894;42.544;1.516;2022-07-10T13:26:35;1.83;;;1.10;;
72771;SDS011;60894;42.544;1.516;2022-07-10T13:29:10;1.10;;;1.00;;
72771;SDS011;60894;42.544;1.516;2022-07-10T13:31:37;0.90;;;0.90;;
72771;SDS011;60894;42.544;1.516;2022-07-10T13:34:04;1.50;;;1.00;;
72771;SDS011;60894;42.544;1.516;2022-07-10T13:36:31;3.53;;;1.10;;
72771;SDS011;60894;42.544;1.516;2022-07-10T13:38:58;1.10;;;1.00;;
72771;SDS011;60894;42.544;1.516;2022-07-10T13:41:25;1.13;;;1.00;;
72771;SDS011;60894;42.544;1.516;2022-07-10T13:43:54;1.13;;;0.90;;
72771;SDS011;60894;42.544;1.516;2022-07-10T13:46:21;2.00;;;0.98;;
72771;SDS011;60894;42.544;1.516;2022-07-10T13:48:48;1.20;;;0.97;;
72771;SDS011;60894;42.544;1.516;2022-07-10T13:51:15;6.43;;;3.40;;
72771;SDS011;60894;42.544;1.516;2022-07-10T13:53:42;1.55;;;1.25;;
72771;SDS011;60894;42.544;1.516;2022-07-10T13:56:09;2.15;;;1.23;;
72771;SDS011;60894;42.544;1.516;2022-07-10T13:58:35;3.75;;;1.90;;
72771;SDS011;60894;42.544;1.516;2022-07-10T14:01:04;5.53;;;2.10;;
72771;SDS011;60894;42.544;1.516;2022-07-10T14:03:32;2.53;;;1.10;;
72771;SDS011;60894;42.544;1.516;2022-07-10T14:05:59;1.67;;;1.10;;
72771;SDS011;60894;42.544;1.516;2022-07-10T14:08:26;4.40;;;1.15;;
72771;SDS011;60894;42.544;1.516;2022-07-10T14:10:54;1.10;;;1.00;;
72771;SDS011;60894;42.544;1.516;2022-07-10T14:13:24;1.40;;;1.10;;
72771;SDS011;60894;42.544;1.516;2022-07-10T14:15:51;1.52;;;1.10;;
72771;SDS011;60894;42.544;1.516;2022-07-10T14:18:33;2.30;;;1.20;;
72771;SDS011;60894;42.544;1.516;2022-07-10T14:21:08;2.43;;;1.20;;
72771;SDS011;60894;42.544;1.516;2022-07-10T14:23:38;1.52;;;1.20;;
72771;SDS011;60894;42.544;1.516;2022-07-10T14:26:14;2.78;;;1.40;;
72771;SDS011;60894;42.544;1.516;2022-07-10T14:28:41;2.58;;;1.20;;
72771;SDS011;60894;42.544;1.516;2022-07-10T14:31:12;3.28;;;1.42;;
72771;SDS011;60894;42.544;1.516;2022-07-10T14:33:40;3.40;;;1.17;;
72771;SDS011;60894;42.544;1.516;2022-07-10T14:36:09;2.23;;;1.20;;
72771;SDS011;60894;42.544;1.516;2022-07-10T14:38:37;2.40;;;1.40;;
72771;SDS011;60894;42.544;1.516;2022-07-10T14:41:05;3.28;;;1.70;;
72771;SDS011;60894;42.544;1.516;2022-07-10T14:43:32;2.15;;;1.58;;
72771;SDS011;60894;42.544;1.516;2022-07-10T14:46:01;1.60;;;1.30;;
72771;SDS011;60894;42.544;1.516;2022-07-10T14:48:30;2.93;;;1.60;;
72771;SDS011;60894;42.544;1.516;2022-07-10T14:50:59;3.03;;;1.50;;
72771;SDS011;60894;42.544;1.516;2022-07-10T14:53:27;1.67;;;1.30;;
72771;SDS011;60894;42.544;1.516;2022-07-10T14:56:01;2.60;;;1.60;;
72771;SDS011;60894;42.544;1.516;2022-07-10T14:58:29;1.98;;;1.50;;
72771;SDS011;60894;42.544;1.516;2022-07-10T15:00:56;2.72;;;1.30;;
72771;SDS011;60894;42.544;1.516;2022-07-10T15:03:23;2.33;;;1.50;;
72771;SDS011;60894;42.544;1.516;2022-07-10T15:05:51;4.57;;;2.73;;
72771;SDS011;60894;42.544;1.516;2022-07-10T15:08:20;5.05;;;2.05;;
72771;SDS011;60894;42.544;1.516;2022-07-10T15:10:51;2.50;;;1.60;;
72771;SDS011;60894;42.544;1.516;2022-07-10T15:13:18;3.42;;;1.73;;
72771;SDS011;60894;42.544;1.516;2022-07-10T15:15:45;2.15;;;1.52;;